sensor_id;sensor_type;location;lat;lon;timestamp;P1;durP1;ratioP1;P2;durP2;ratioP2
55063;SDS011;40963;52.168;21.296;2023-08-17T00:00:55;15.68;;;9.65;;
55063;SDS011;40963;52.168;21.296;2023-08-17T00:03:21;11.77;;;9.50;;
55063;SDS011;40963;52.168;21.296;2023-08-17T00:05:46;16.63;;;9.55;;
55063;SDS011;40963;52.168;21.296;2023-08-17T00:08:12;14.02;;;9.40;;
55063;SDS011;40963;52.168;21.296;2023-08-17T00:10:37;13.10;;;9.35;;
55063;SDS011;40963;52.168;21.296;2023-08-17T00:13:03;13.85;;;9.57;;
55063;SDS011;40963;52.168;21.296;2023-08-17T00:15:29;15.80;;;9.32;;
55063;SDS011;40963;52.168;21.296;2023-08-17T00:17:55;11.82;;;9.10;;
55063;SDS011;40963;52.168;21.296;2023-08-17T00:20:20;19.08;;;9.82;;
55063;SDS011;40963;52.168;21.296;2023-08-17T00:22:46;12.18;;;9.27;;
55063;SDS011;40963;52.168;21.296;2023-08-17T00:25:12;11.82;;;9.68;;
55063;SDS011;40963;52.168;21.296;2023-08-17T00:27:37;15.35;;;9.80;;
55063;SDS011;40963;52.168;21.296;2023-08-17T00:30:03;12.70;;;9.65;;
55063;SDS011;40963;52.168;21.296;2023-08-17T00:32:29;15.05;;;9.23;;
55063;SDS011;40963;52.168;21.296;2023-08-17T00:34:54;13.82;;;9.45;;
55063;SDS011;40963;52.168;21.296;2023-08-17T00:37:20;12.75;;;9.20;;
55063;SDS011;40963;52.168;21.296;2023-08-17T00:39:46;14.25;;;9.20;;
55063;SDS011;40963;52.168;21.296;2023-08-17T00:42:11;11.85;;;8.88;;
55063;SDS011;40963;52.168;21.296;2023-08-17T00:44:37;13.25;;;9.48;;
55063;SDS011;40963;52.168;21.296;2023-08-17T00:47:02;12.02;;;9.07;;
55063;SDS011;40963;52.168;21.296;2023-08-17T00:49:29;11.38;;;9.30;;
55063;SDS011;40963;52.168;21.296;2023-08-17T00:51:56;20.85;;;9.73;;
55063;SDS011;40963;52.168;21.296;2023-08-17T00:54:23;13.52;;;9.75;;
55063;SDS011;40963;52.168;21.296;2023-08-17T00:56:50;14.20;;;9.60;;
55063;SDS011;40963;52.168;21.296;2023-08-17T00:59:17;21.42;;;10.15;;
55063;SDS011;40963;52.168;21.296;2023-08-17T01:01:43;22.00;;;10.65;;
55063;SDS011;40963;52.168;21.296;2023-08-17T01:04:09;13.23;;;9.38;;
55063;SDS011;40963;52.168;21.296;2023-08-17T01:06:34;13.30;;;9.55;;
55063;SDS011;40963;52.168;21.296;2023-08-17T01:09:00;12.27;;;10.15;;
55063;SDS011;40963;52.168;21.296;2023-08-17T01:11:41;18.30;;;10.35;;
55063;SDS011;40963;52.168;21.296;2023-08-17T01:17:00;16.45;;;10.60;;
55063;SDS011;40963;52.168;21.296;2023-08-17T01:19:27;11.95;;;9.90;;
55063;SDS011;40963;52.168;21.296;2023-08-17T01:22:06;14.23;;;9.63;;
55063;SDS011;40963;52.168;21.296;2023-08-17T01:24:33;17.02;;;10.23;;
55063;SDS011;40963;52.168;21.296;2023-08-17T01:26:59;19.42;;;10.23;;
55063;SDS011;40963;52.168;21.296;2023-08-17T01:29:25;12.48;;;9.63;;
55063;SDS011;40963;52.168;21.296;2023-08-17T01:31:58;15.35;;;10.15;;
55063;SDS011;40963;52.168;21.296;2023-08-17T01:34:43;14.13;;;10.13;;
55063;SDS011;40963;52.168;21.296;2023-08-17T01:37:13;14.45;;;9.95;;
55063;SDS011;40963;52.168;21.296;2023-08-17T01:39:43;14.27;;;9.95;;
55063;SDS011;40963;52.168;21.296;2023-08-17T01:42:09;12.70;;;9.65;;
55063;SDS011;40963;52.168;21.296;2023-08-17T01:44:37;19.30;;;10.05;;
55063;SDS011;40963;52.168;21.296;2023-08-17T01:47:04;14.02;;;10.05;;
55063;SDS011;40963;52.168;21.296;2023-08-17T01:49:29;16.10;;;10.25;;
55063;SDS011;40963;52.168;21.296;2023-08-17T01:51:55;15.18;;;10.30;;
55063;SDS011;40963;52.168;21.296;2023-08-17T01:54:21;19.75;;;10.73;;
55063;SDS011;40963;52.168;21.296;2023-08-17T01:56:47;17.58;;;10.52;;
55063;SDS011;40963;52.168;21.296;2023-08-17T01:59:12;12.80;;;10.27;;
55063;SDS011;40963;52.168;21.296;2023-08-17T02:01:38;14.43;;;10.48;;
55063;SDS011;40963;52.168;21.296;2023-08-17T02:04:03;16.58;;;10.60;;
55063;SDS011;40963;52.168;21.296;2023-08-17T02:06:29;17.23;;;10.50;;
55063;SDS011;40963;52.168;21.296;2023-08-17T02:08:55;16.60;;;11.35;;
55063;SDS011;40963;52.168;21.296;2023-08-17T02:11:20;18.05;;;10.80;;
55063;SDS011;40963;52.168;21.296;2023-08-17T02:13:46;16.25;;;10.43;;
55063;SDS011;40963;52.168;21.296;2023-08-17T02:16:12;12.70;;;10.43;;
55063;SDS011;40963;52.168;21.296;2023-08-17T02:18:37;14.93;;;10.80;;
55063;SDS011;40963;52.168;21.296;2023-08-17T02:21:03;13.57;;;10.27;;
55063;SDS011;40963;52.168;21.296;2023-08-17T02:23:28;15.73;;;11.15;;
55063;SDS011;40963;52.168;21.296;2023-08-17T02:25:54;14.43;;;10.88;;
55063;SDS011;40963;52.168;21.296;2023-08-17T02:28:19;20.08;;;10.60;;
55063;SDS011;40963;52.168;21.296;2023-08-17T02:30:45;20.33;;;11.20;;
55063;SDS011;40963;52.168;21.296;2023-08-17T02:33:11;16.73;;;10.63;;
55063;SDS011;40963;52.168;21.296;2023-08-17T02:35:37;13.68;;;10.18;;
55063;SDS011;40963;52.168;21.296;2023-08-17T02:38:02;16.33;;;10.88;;
55063;SDS011;40963;52.168;21.296;2023-08-17T02:40:28;17.83;;;10.98;;
55063;SDS011;40963;52.168;21.296;2023-08-17T02:42:54;14.27;;;10.00;;
55063;SDS011;40963;52.168;21.296;2023-08-17T02:45:19;13.43;;;10.50;;
55063;SDS011;40963;52.168;21.296;2023-08-17T02:47:45;18.58;;;11.00;;
55063;SDS011;40963;52.168;21.296;2023-08-17T02:50:10;17.98;;;11.25;;
55063;SDS011;40963;52.168;21.296;2023-08-17T02:52:36;14.95;;;11.07;;
55063;SDS011;40963;52.168;21.296;2023-08-17T02:55:02;15.15;;;10.45;;
55063;SDS011;40963;52.168;21.296;2023-08-17T02:57:28;13.00;;;10.68;;
55063;SDS011;40963;52.168;21.296;2023-08-17T02:59:53;15.07;;;11.18;;
55063;SDS011;40963;52.168;21.296;2023-08-17T03:02:19;16.73;;;10.43;;
55063;SDS011;40963;52.168;21.296;2023-08-17T03:04:44;17.23;;;10.73;;
55063;SDS011;40963;52.168;21.296;2023-08-17T03:07:10;17.52;;;11.80;;
55063;SDS011;40963;52.168;21.296;2023-08-17T03:09:35;18.60;;;11.02;;
55063;SDS011;40963;52.168;21.296;2023-08-17T03:12:01;18.60;;;11.82;;
55063;SDS011;40963;52.168;21.296;2023-08-17T03:14:27;16.02;;;11.38;;
55063;SDS011;40963;52.168;21.296;2023-08-17T03:16:52;11.45;;;10.23;;
55063;SDS011;40963;52.168;21.296;2023-08-17T03:19:18;14.18;;;11.05;;
55063;SDS011;40963;52.168;21.296;2023-08-17T03:21:44;15.98;;;11.20;;
55063;SDS011;40963;52.168;21.296;2023-08-17T03:24:09;14.90;;;10.77;;
55063;SDS011;40963;52.168;21.296;2023-08-17T03:26:35;18.02;;;11.18;;
55063;SDS011;40963;52.168;21.296;2023-08-17T03:29:00;17.35;;;10.73;;
55063;SDS011;40963;52.168;21.296;2023-08-17T03:31:26;20.58;;;10.43;;
55063;SDS011;40963;52.168;21.296;2023-08-17T03:33:51;16.23;;;10.82;;
55063;SDS011;40963;52.168;21.296;2023-08-17T03:36:17;17.45;;;10.75;;
55063;SDS011;40963;52.168;21.296;2023-08-17T03:38:43;16.58;;;10.23;;
55063;SDS011;40963;52.168;21.296;2023-08-17T03:41:08;16.15;;;11.32;;
55063;SDS011;40963;52.168;21.296;2023-08-17T03:43:34;13.90;;;10.55;;
55063;SDS011;40963;52.168;21.296;2023-08-17T03:46:00;12.65;;;10.10;;
55063;SDS011;40963;52.168;21.296;2023-08-17T03:48:26;22.08;;;11.15;;
55063;SDS011;40963;52.168;21.296;2023-08-17T03:50:52;16.65;;;10.20;;
55063;SDS011;40963;52.168;21.296;2023-08-17T03:53:21;20.58;;;10.30;;
55063;SDS011;40963;52.168;21.296;2023-08-17T03:55:49;18.55;;;10.80;;
55063;SDS011;40963;52.168;21.296;2023-08-17T03:58:16;11.65;;;10.45;;
55063;SDS011;40963;52.168;21.296;2023-08-17T04:00:48;13.23;;;10.98;;
55063;SDS011;40963;52.168;21.296;2023-08-17T04:03:17;17.92;;;10.73;;
55063;SDS011;40963;52.168;21.296;2023-08-17T04:05:43;15.10;;;10.60;;
55063;SDS011;40963;52.168;21.296;2023-08-17T04:08:09;13.50;;;10.48;;
55063;SDS011;40963;52.168;21.296;2023-08-17T04:10:34;15.60;;;10.30;;
55063;SDS011;40963;52.168;21.296;2023-08-17T04:13:00;14.30;;;10.80;;
55063;SDS011;40963;52.168;21.296;2023-08-17T04:15:25;15.82;;;10.80;;
55063;SDS011;40963;52.168;21.296;2023-08-17T04:17:51;16.15;;;10.50;;
55063;SDS011;40963;52.168;21.296;2023-08-17T04:20:17;18.08;;;10.85;;
55063;SDS011;40963;52.168;21.296;2023-08-17T04:22:43;16.35;;;11.02;;
55063;SDS011;40963;52.168;21.296;2023-08-17T04:25:09;22.02;;;10.90;;
55063;SDS011;40963;52.168;21.296;2023-08-17T04:27:35;14.60;;;10.70;;
55063;SDS011;40963;52.168;21.296;2023-08-17T04:30:00;21.10;;;11.20;;
55063;SDS011;40963;52.168;21.296;2023-08-17T04:32:26;13.63;;;10.07;;
55063;SDS011;40963;52.168;21.296;2023-08-17T04:34:52;18.60;;;10.80;;
55063;SDS011;40963;52.168;21.296;2023-08-17T04:37:17;17.23;;;11.07;;
55063;SDS011;40963;52.168;21.296;2023-08-17T04:39:43;13.68;;;10.75;;
55063;SDS011;40963;52.168;21.296;2023-08-17T04:42:09;16.15;;;10.80;;
55063;SDS011;40963;52.168;21.296;2023-08-17T04:44:34;15.32;;;10.98;;
55063;SDS011;40963;52.168;21.296;2023-08-17T04:47:00;19.55;;;11.02;;
55063;SDS011;40963;52.168;21.296;2023-08-17T04:49:26;14.48;;;11.45;;
55063;SDS011;40963;52.168;21.296;2023-08-17T04:51:52;11.38;;;9.90;;
55063;SDS011;40963;52.168;21.296;2023-08-17T04:54:18;15.32;;;10.93;;
55063;SDS011;40963;52.168;21.296;2023-08-17T04:56:44;13.95;;;10.63;;
55063;SDS011;40963;52.168;21.296;2023-08-17T04:59:09;15.07;;;11.68;;
55063;SDS011;40963;52.168;21.296;2023-08-17T05:01:35;21.70;;;11.05;;
55063;SDS011;40963;52.168;21.296;2023-08-17T05:04:02;19.33;;;10.68;;
55063;SDS011;40963;52.168;21.296;2023-08-17T05:06:28;15.55;;;10.75;;
55063;SDS011;40963;52.168;21.296;2023-08-17T05:08:54;13.23;;;10.15;;
55063;SDS011;40963;52.168;21.296;2023-08-17T05:11:19;14.55;;;10.18;;
55063;SDS011;40963;52.168;21.296;2023-08-17T05:13:45;14.80;;;11.10;;
55063;SDS011;40963;52.168;21.296;2023-08-17T05:16:10;15.40;;;10.88;;
55063;SDS011;40963;52.168;21.296;2023-08-17T05:18:36;18.90;;;11.45;;
55063;SDS011;40963;52.168;21.296;2023-08-17T05:21:02;15.45;;;10.93;;
55063;SDS011;40963;52.168;21.296;2023-08-17T05:23:27;15.00;;;10.75;;
55063;SDS011;40963;52.168;21.296;2023-08-17T05:25:53;22.40;;;10.25;;
55063;SDS011;40963;52.168;21.296;2023-08-17T05:28:18;28.33;;;10.60;;
55063;SDS011;40963;52.168;21.296;2023-08-17T05:30:44;18.70;;;10.73;;
55063;SDS011;40963;52.168;21.296;2023-08-17T05:33:11;19.27;;;10.40;;
55063;SDS011;40963;52.168;21.296;2023-08-17T05:35:37;16.80;;;9.65;;
55063;SDS011;40963;52.168;21.296;2023-08-17T05:38:02;17.90;;;9.27;;
55063;SDS011;40963;52.168;21.296;2023-08-17T05:40:32;39.25;;;10.57;;
55063;SDS011;40963;52.168;21.296;2023-08-17T05:42:57;29.58;;;9.55;;
55063;SDS011;40963;52.168;21.296;2023-08-17T05:45:23;18.08;;;9.70;;
55063;SDS011;40963;52.168;21.296;2023-08-17T05:47:48;24.55;;;9.15;;
55063;SDS011;40963;52.168;21.296;2023-08-17T05:50:14;20.85;;;8.75;;
55063;SDS011;40963;52.168;21.296;2023-08-17T05:52:40;15.50;;;8.40;;
55063;SDS011;40963;52.168;21.296;2023-08-17T05:55:06;17.42;;;8.23;;
55063;SDS011;40963;52.168;21.296;2023-08-17T05:57:32;12.38;;;7.97;;
55063;SDS011;40963;52.168;21.296;2023-08-17T05:59:58;14.70;;;8.05;;
55063;SDS011;40963;52.168;21.296;2023-08-17T06:02:24;9.75;;;7.07;;
55063;SDS011;40963;52.168;21.296;2023-08-17T06:04:49;12.38;;;7.70;;
55063;SDS011;40963;52.168;21.296;2023-08-17T06:07:15;18.45;;;6.85;;
55063;SDS011;40963;52.168;21.296;2023-08-17T06:09:40;10.45;;;6.65;;
55063;SDS011;40963;52.168;21.296;2023-08-17T06:12:06;12.75;;;6.60;;
55063;SDS011;40963;52.168;21.296;2023-08-17T06:14:33;16.85;;;6.93;;
55063;SDS011;40963;52.168;21.296;2023-08-17T06:16:59;7.85;;;6.63;;
55063;SDS011;40963;52.168;21.296;2023-08-17T06:19:24;13.50;;;7.47;;
55063;SDS011;40963;52.168;21.296;2023-08-17T06:21:50;14.65;;;7.15;;
55063;SDS011;40963;52.168;21.296;2023-08-17T06:24:16;9.75;;;6.90;;
55063;SDS011;40963;52.168;21.296;2023-08-17T06:26:43;9.55;;;7.53;;
55063;SDS011;40963;52.168;21.296;2023-08-17T06:29:10;12.60;;;6.68;;
55063;SDS011;40963;52.168;21.296;2023-08-17T06:31:36;13.93;;;6.78;;
55063;SDS011;40963;52.168;21.296;2023-08-17T06:34:02;14.70;;;6.65;;
55063;SDS011;40963;52.168;21.296;2023-08-17T06:36:31;12.88;;;7.05;;
55063;SDS011;40963;52.168;21.296;2023-08-17T06:39:00;10.85;;;6.78;;
55063;SDS011;40963;52.168;21.296;2023-08-17T06:41:25;7.68;;;6.38;;
55063;SDS011;40963;52.168;21.296;2023-08-17T06:43:51;13.05;;;6.85;;
55063;SDS011;40963;52.168;21.296;2023-08-17T06:46:17;8.98;;;7.10;;
55063;SDS011;40963;52.168;21.296;2023-08-17T06:48:43;8.65;;;6.47;;
55063;SDS011;40963;52.168;21.296;2023-08-17T06:51:09;12.25;;;6.82;;
55063;SDS011;40963;52.168;21.296;2023-08-17T06:53:35;15.02;;;6.70;;
55063;SDS011;40963;52.168;21.296;2023-08-17T06:56:00;12.25;;;6.80;;
55063;SDS011;40963;52.168;21.296;2023-08-17T06:58:26;12.15;;;7.25;;
55063;SDS011;40963;52.168;21.296;2023-08-17T07:00:52;13.50;;;6.82;;
55063;SDS011;40963;52.168;21.296;2023-08-17T07:03:17;12.73;;;6.55;;
55063;SDS011;40963;52.168;21.296;2023-08-17T07:05:43;7.80;;;6.50;;
55063;SDS011;40963;52.168;21.296;2023-08-17T07:08:09;9.40;;;6.28;;
55063;SDS011;40963;52.168;21.296;2023-08-17T07:10:35;11.15;;;6.40;;
55063;SDS011;40963;52.168;21.296;2023-08-17T07:13:01;8.18;;;6.25;;
55063;SDS011;40963;52.168;21.296;2023-08-17T07:15:30;11.25;;;5.90;;
55063;SDS011;40963;52.168;21.296;2023-08-17T07:17:56;9.27;;;6.60;;
55063;SDS011;40963;52.168;21.296;2023-08-17T07:20:22;8.43;;;6.63;;
55063;SDS011;40963;52.168;21.296;2023-08-17T07:22:47;7.50;;;6.20;;
55063;SDS011;40963;52.168;21.296;2023-08-17T07:25:13;9.38;;;6.35;;
55063;SDS011;40963;52.168;21.296;2023-08-17T07:27:39;9.73;;;6.45;;
55063;SDS011;40963;52.168;21.296;2023-08-17T07:30:05;10.10;;;6.10;;
55063;SDS011;40963;52.168;21.296;2023-08-17T07:32:32;9.98;;;6.65;;
55063;SDS011;40963;52.168;21.296;2023-08-17T07:34:58;9.00;;;6.57;;
55063;SDS011;40963;52.168;21.296;2023-08-17T07:37:24;11.20;;;6.47;;
55063;SDS011;40963;52.168;21.296;2023-08-17T07:39:56;6.90;;;6.20;;
55063;SDS011;40963;52.168;21.296;2023-08-17T07:42:21;11.88;;;6.50;;
55063;SDS011;40963;52.168;21.296;2023-08-17T07:44:47;6.72;;;5.97;;
55063;SDS011;40963;52.168;21.296;2023-08-17T07:47:13;7.82;;;6.22;;
55063;SDS011;40963;52.168;21.296;2023-08-17T07:49:38;10.40;;;6.05;;
55063;SDS011;40963;52.168;21.296;2023-08-17T07:52:04;9.00;;;5.60;;
55063;SDS011;40963;52.168;21.296;2023-08-17T07:54:30;10.23;;;6.28;;
55063;SDS011;40963;52.168;21.296;2023-08-17T07:56:56;10.60;;;6.00;;
55063;SDS011;40963;52.168;21.296;2023-08-17T07:59:22;8.70;;;5.93;;
55063;SDS011;40963;52.168;21.296;2023-08-17T08:01:48;9.02;;;5.38;;
55063;SDS011;40963;52.168;21.296;2023-08-17T08:04:13;7.68;;;6.07;;
55063;SDS011;40963;52.168;21.296;2023-08-17T08:06:39;10.35;;;5.95;;
55063;SDS011;40963;52.168;21.296;2023-08-17T08:09:05;7.40;;;5.97;;
55063;SDS011;40963;52.168;21.296;2023-08-17T08:11:31;11.73;;;5.82;;
55063;SDS011;40963;52.168;21.296;2023-08-17T08:13:57;10.25;;;6.28;;
55063;SDS011;40963;52.168;21.296;2023-08-17T08:16:22;8.82;;;5.80;;
55063;SDS011;40963;52.168;21.296;2023-08-17T08:18:48;7.60;;;5.90;;
55063;SDS011;40963;52.168;21.296;2023-08-17T08:21:14;8.02;;;6.25;;
55063;SDS011;40963;52.168;21.296;2023-08-17T08:23:39;13.57;;;6.43;;
55063;SDS011;40963;52.168;21.296;2023-08-17T08:26:05;11.07;;;6.30;;
55063;SDS011;40963;52.168;21.296;2023-08-17T08:28:31;9.98;;;5.80;;
55063;SDS011;40963;52.168;21.296;2023-08-17T08:31:00;12.88;;;5.93;;
55063;SDS011;40963;52.168;21.296;2023-08-17T08:33:29;10.23;;;6.32;;
55063;SDS011;40963;52.168;21.296;2023-08-17T08:35:55;7.10;;;5.60;;
55063;SDS011;40963;52.168;21.296;2023-08-17T08:38:21;8.57;;;6.28;;
55063;SDS011;40963;52.168;21.296;2023-08-17T08:40:47;7.93;;;6.20;;
55063;SDS011;40963;52.168;21.296;2023-08-17T08:43:14;6.20;;;5.57;;
55063;SDS011;40963;52.168;21.296;2023-08-17T08:45:41;11.32;;;5.72;;
55063;SDS011;40963;52.168;21.296;2023-08-17T08:48:09;10.52;;;6.00;;
55063;SDS011;40963;52.168;21.296;2023-08-17T08:50:36;8.82;;;5.30;;
55063;SDS011;40963;52.168;21.296;2023-08-17T08:53:09;9.57;;;5.40;;
55063;SDS011;40963;52.168;21.296;2023-08-17T08:55:38;8.82;;;5.55;;
55063;SDS011;40963;52.168;21.296;2023-08-17T08:58:12;9.65;;;6.15;;
55063;SDS011;40963;52.168;21.296;2023-08-17T09:00:40;14.80;;;5.85;;
55063;SDS011;40963;52.168;21.296;2023-08-17T09:03:07;9.05;;;6.82;;
55063;SDS011;40963;52.168;21.296;2023-08-17T09:05:34;10.52;;;6.03;;
55063;SDS011;40963;52.168;21.296;2023-08-17T09:08:01;12.65;;;5.85;;
55063;SDS011;40963;52.168;21.296;2023-08-17T09:10:28;8.60;;;6.22;;
55063;SDS011;40963;52.168;21.296;2023-08-17T09:12:54;9.48;;;6.50;;
55063;SDS011;40963;52.168;21.296;2023-08-17T09:15:19;29.77;;;6.40;;
55063;SDS011;40963;52.168;21.296;2023-08-17T09:17:45;7.72;;;5.97;;
55063;SDS011;40963;52.168;21.296;2023-08-17T09:20:17;10.65;;;6.10;;
55063;SDS011;40963;52.168;21.296;2023-08-17T09:23:03;7.80;;;5.97;;
55063;SDS011;40963;52.168;21.296;2023-08-17T09:25:30;8.77;;;6.25;;
55063;SDS011;40963;52.168;21.296;2023-08-17T09:27:57;7.63;;;5.82;;
55063;SDS011;40963;52.168;21.296;2023-08-17T09:30:22;10.15;;;5.80;;
55063;SDS011;40963;52.168;21.296;2023-08-17T09:32:48;8.13;;;5.60;;
55063;SDS011;40963;52.168;21.296;2023-08-17T09:35:14;8.80;;;5.18;;
55063;SDS011;40963;52.168;21.296;2023-08-17T09:37:40;10.57;;;5.63;;
55063;SDS011;40963;52.168;21.296;2023-08-17T09:40:06;8.13;;;5.38;;
55063;SDS011;40963;52.168;21.296;2023-08-17T09:42:34;11.18;;;5.88;;
55063;SDS011;40963;52.168;21.296;2023-08-17T09:45:00;7.05;;;6.05;;
55063;SDS011;40963;52.168;21.296;2023-08-17T09:47:27;7.45;;;5.18;;
55063;SDS011;40963;52.168;21.296;2023-08-17T09:49:54;7.32;;;5.72;;
55063;SDS011;40963;52.168;21.296;2023-08-17T09:52:23;7.75;;;5.18;;
55063;SDS011;40963;52.168;21.296;2023-08-17T09:54:49;5.88;;;5.30;;
55063;SDS011;40963;52.168;21.296;2023-08-17T09:57:17;8.93;;;5.13;;
55063;SDS011;40963;52.168;21.296;2023-08-17T09:59:42;8.07;;;5.20;;
55063;SDS011;40963;52.168;21.296;2023-08-17T10:02:17;5.03;;;4.55;;
55063;SDS011;40963;52.168;21.296;2023-08-17T10:04:53;7.70;;;4.75;;
55063;SDS011;40963;52.168;21.296;2023-08-17T10:07:21;8.90;;;4.95;;
55063;SDS011;40963;52.168;21.296;2023-08-17T10:12:53;7.50;;;3.78;;
55063;SDS011;40963;52.168;21.296;2023-08-17T10:15:20;8.95;;;4.20;;
55063;SDS011;40963;52.168;21.296;2023-08-17T10:17:58;5.85;;;4.18;;
55063;SDS011;40963;52.168;21.296;2023-08-17T10:20:29;6.38;;;4.03;;
55063;SDS011;40963;52.168;21.296;2023-08-17T10:23:10;5.68;;;2.92;;
55063;SDS011;40963;52.168;21.296;2023-08-17T10:25:41;4.28;;;3.35;;
55063;SDS011;40963;52.168;21.296;2023-08-17T10:28:11;8.63;;;3.30;;
55063;SDS011;40963;52.168;21.296;2023-08-17T10:30:37;9.20;;;3.17;;
55063;SDS011;40963;52.168;21.296;2023-08-17T10:33:05;10.50;;;2.33;;
55063;SDS011;40963;52.168;21.296;2023-08-17T10:35:32;5.72;;;2.80;;
55063;SDS011;40963;52.168;21.296;2023-08-17T10:37:58;3.25;;;2.50;;
55063;SDS011;40963;52.168;21.296;2023-08-17T10:40:26;4.05;;;3.22;;
55063;SDS011;40963;52.168;21.296;2023-08-17T10:42:56;8.38;;;2.90;;
55063;SDS011;40963;52.168;21.296;2023-08-17T10:47:47;4.82;;;2.80;;
55063;SDS011;40963;52.168;21.296;2023-08-17T10:50:22;3.28;;;2.47;;
55063;SDS011;40963;52.168;21.296;2023-08-17T10:52:49;4.30;;;2.42;;
55063;SDS011;40963;52.168;21.296;2023-08-17T10:55:15;4.30;;;2.90;;
55063;SDS011;40963;52.168;21.296;2023-08-17T10:57:42;5.55;;;2.88;;
55063;SDS011;40963;52.168;21.296;2023-08-17T11:02:42;7.63;;;2.50;;
55063;SDS011;40963;52.168;21.296;2023-08-17T11:05:09;3.97;;;2.22;;
55063;SDS011;40963;52.168;21.296;2023-08-17T11:07:41;5.70;;;2.47;;
55063;SDS011;40963;52.168;21.296;2023-08-17T11:12:44;9.77;;;2.80;;
55063;SDS011;40963;52.168;21.296;2023-08-17T11:15:10;5.65;;;2.67;;
55063;SDS011;40963;52.168;21.296;2023-08-17T11:17:35;7.28;;;2.78;;
55063;SDS011;40963;52.168;21.296;2023-08-17T11:20:01;8.30;;;2.72;;
55063;SDS011;40963;52.168;21.296;2023-08-17T11:22:28;4.60;;;2.60;;
55063;SDS011;40963;52.168;21.296;2023-08-17T11:24:54;7.57;;;2.92;;
55063;SDS011;40963;52.168;21.296;2023-08-17T11:27:20;6.47;;;2.95;;
55063;SDS011;40963;52.168;21.296;2023-08-17T11:29:45;10.07;;;2.80;;
55063;SDS011;40963;52.168;21.296;2023-08-17T11:32:12;5.15;;;2.58;;
55063;SDS011;40963;52.168;21.296;2023-08-17T11:34:40;3.60;;;2.70;;
55063;SDS011;40963;52.168;21.296;2023-08-17T11:37:06;5.28;;;2.38;;
55063;SDS011;40963;52.168;21.296;2023-08-17T11:39:35;8.50;;;2.97;;
55063;SDS011;40963;52.168;21.296;2023-08-17T11:42:00;6.57;;;2.80;;
55063;SDS011;40963;52.168;21.296;2023-08-17T11:44:26;3.63;;;3.00;;
55063;SDS011;40963;52.168;21.296;2023-08-17T11:46:52;6.32;;;3.20;;
55063;SDS011;40963;52.168;21.296;2023-08-17T11:49:18;5.82;;;3.20;;
55063;SDS011;40963;52.168;21.296;2023-08-17T11:51:44;4.50;;;3.30;;
55063;SDS011;40963;52.168;21.296;2023-08-17T11:54:10;5.55;;;3.03;;
55063;SDS011;40963;52.168;21.296;2023-08-17T11:56:36;8.50;;;2.80;;
55063;SDS011;40963;52.168;21.296;2023-08-17T11:59:09;6.88;;;3.35;;
55063;SDS011;40963;52.168;21.296;2023-08-17T12:01:44;5.97;;;3.13;;
55063;SDS011;40963;52.168;21.296;2023-08-17T12:04:11;3.70;;;2.90;;
55063;SDS011;40963;52.168;21.296;2023-08-17T12:06:43;4.03;;;2.75;;
55063;SDS011;40963;52.168;21.296;2023-08-17T12:09:12;8.60;;;3.30;;
55063;SDS011;40963;52.168;21.296;2023-08-17T12:11:39;3.85;;;2.33;;
55063;SDS011;40963;52.168;21.296;2023-08-17T12:14:11;8.38;;;3.15;;
55063;SDS011;40963;52.168;21.296;2023-08-17T12:16:46;5.38;;;2.70;;
55063;SDS011;40963;52.168;21.296;2023-08-17T12:19:15;7.00;;;3.33;;
55063;SDS011;40963;52.168;21.296;2023-08-17T12:21:41;10.00;;;3.47;;
55063;SDS011;40963;52.168;21.296;2023-08-17T12:24:10;7.03;;;3.92;;
55063;SDS011;40963;52.168;21.296;2023-08-17T12:26:46;4.88;;;3.63;;
55063;SDS011;40963;52.168;21.296;2023-08-17T12:29:12;9.68;;;3.35;;
55063;SDS011;40963;52.168;21.296;2023-08-17T12:31:38;8.95;;;3.28;;
55063;SDS011;40963;52.168;21.296;2023-08-17T12:34:03;10.20;;;3.70;;
55063;SDS011;40963;52.168;21.296;2023-08-17T12:36:31;8.07;;;3.13;;
55063;SDS011;40963;52.168;21.296;2023-08-17T12:38:57;4.47;;;2.90;;
55063;SDS011;40963;52.168;21.296;2023-08-17T12:41:23;4.70;;;2.92;;
55063;SDS011;40963;52.168;21.296;2023-08-17T12:43:48;7.85;;;3.38;;
55063;SDS011;40963;52.168;21.296;2023-08-17T12:46:14;5.88;;;3.08;;
55063;SDS011;40963;52.168;21.296;2023-08-17T12:48:40;4.40;;;2.80;;
55063;SDS011;40963;52.168;21.296;2023-08-17T12:51:06;6.10;;;2.72;;
55063;SDS011;40963;52.168;21.296;2023-08-17T12:53:31;6.72;;;2.85;;
55063;SDS011;40963;52.168;21.296;2023-08-17T12:55:57;6.53;;;3.08;;
55063;SDS011;40963;52.168;21.296;2023-08-17T12:58:23;8.02;;;3.03;;
55063;SDS011;40963;52.168;21.296;2023-08-17T13:00:49;5.35;;;2.70;;
55063;SDS011;40963;52.168;21.296;2023-08-17T13:03:16;7.13;;;2.90;;
55063;SDS011;40963;52.168;21.296;2023-08-17T13:05:42;8.07;;;2.55;;
55063;SDS011;40963;52.168;21.296;2023-08-17T13:08:08;7.13;;;2.75;;
55063;SDS011;40963;52.168;21.296;2023-08-17T13:10:34;4.93;;;2.70;;
55063;SDS011;40963;52.168;21.296;2023-08-17T13:13:00;5.82;;;2.50;;
55063;SDS011;40963;52.168;21.296;2023-08-17T13:15:26;3.72;;;2.40;;
55063;SDS011;40963;52.168;21.296;2023-08-17T13:17:51;3.28;;;2.50;;
55063;SDS011;40963;52.168;21.296;2023-08-17T13:20:17;4.43;;;2.55;;
55063;SDS011;40963;52.168;21.296;2023-08-17T13:22:43;2.65;;;2.45;;
55063;SDS011;40963;52.168;21.296;2023-08-17T13:25:08;3.45;;;2.50;;
55063;SDS011;40963;52.168;21.296;2023-08-17T13:27:34;7.45;;;2.95;;
55063;SDS011;40963;52.168;21.296;2023-08-17T13:30:00;3.28;;;2.78;;
55063;SDS011;40963;52.168;21.296;2023-08-17T13:32:26;5.43;;;2.17;;
55063;SDS011;40963;52.168;21.296;2023-08-17T13:34:52;2.60;;;2.40;;
55063;SDS011;40963;52.168;21.296;2023-08-17T13:37:18;4.30;;;2.42;;
55063;SDS011;40963;52.168;21.296;2023-08-17T13:39:44;3.22;;;2.22;;
55063;SDS011;40963;52.168;21.296;2023-08-17T13:42:10;5.57;;;2.70;;
55063;SDS011;40963;52.168;21.296;2023-08-17T13:44:35;4.70;;;2.88;;
55063;SDS011;40963;52.168;21.296;2023-08-17T13:47:01;5.15;;;2.60;;
55063;SDS011;40963;52.168;21.296;2023-08-17T13:49:26;3.38;;;2.55;;
55063;SDS011;40963;52.168;21.296;2023-08-17T13:51:53;5.22;;;2.75;;
55063;SDS011;40963;52.168;21.296;2023-08-17T13:54:19;4.15;;;3.10;;
55063;SDS011;40963;52.168;21.296;2023-08-17T13:56:44;7.80;;;3.20;;
55063;SDS011;40963;52.168;21.296;2023-08-17T13:59:10;5.55;;;3.00;;
55063;SDS011;40963;52.168;21.296;2023-08-17T14:01:36;4.00;;;2.85;;
55063;SDS011;40963;52.168;21.296;2023-08-17T14:04:01;6.68;;;3.20;;
55063;SDS011;40963;52.168;21.296;2023-08-17T14:06:28;7.00;;;2.45;;
55063;SDS011;40963;52.168;21.296;2023-08-17T14:08:54;8.43;;;2.70;;
55063;SDS011;40963;52.168;21.296;2023-08-17T14:11:20;5.65;;;2.65;;
55063;SDS011;40963;52.168;21.296;2023-08-17T14:13:45;6.47;;;2.92;;
55063;SDS011;40963;52.168;21.296;2023-08-17T14:16:11;5.95;;;2.83;;
55063;SDS011;40963;52.168;21.296;2023-08-17T14:18:37;4.60;;;2.83;;
55063;SDS011;40963;52.168;21.296;2023-08-17T14:21:02;3.70;;;3.10;;
55063;SDS011;40963;52.168;21.296;2023-08-17T14:23:28;7.05;;;2.80;;
55063;SDS011;40963;52.168;21.296;2023-08-17T14:25:53;3.92;;;2.70;;
55063;SDS011;40963;52.168;21.296;2023-08-17T14:28:19;5.57;;;2.60;;
55063;SDS011;40963;52.168;21.296;2023-08-17T14:30:45;4.97;;;2.47;;
55063;SDS011;40963;52.168;21.296;2023-08-17T14:33:11;8.23;;;2.53;;